sensor_id;sensor_type;location;lat;lon;timestamp;P1;durP1;ratioP1;P2;durP2;ratioP2
45905;SDS011;31619;49.008;12.106;2022-09-03T00:01:26;1.80;;;1.70;;
45905;SDS011;31619;49.008;12.106;2022-09-03T00:04:09;2.03;;;1.92;;
45905;SDS011;31619;49.008;12.106;2022-09-03T00:07:04;1.77;;;1.67;;
45905;SDS011;31619;49.008;12.106;2022-09-03T00:09:32;4.25;;;2.00;;
45905;SDS011;31619;49.008;12.106;2022-09-03T00:12:10;1.83;;;1.73;;
45905;SDS011;31619;49.008;12.106;2022-09-03T00:14:40;3.30;;;1.75;;
45905;SDS011;31619;49.008;12.106;2022-09-03T00:17:33;2.00;;;1.90;;
45905;SDS011;31619;49.008;12.106;2022-09-03T00:20:05;2.42;;;2.10;;
45905;SDS011;31619;49.008;12.106;2022-09-03T00:22:48;2.15;;;1.85;;
45905;SDS011;31619;49.008;12.106;2022-09-03T00:25:20;1.88;;;1.75;;
45905;SDS011;31619;49.008;12.106;2022-09-03T00:27:57;1.80;;;1.75;;
45905;SDS011;31619;49.008;12.106;2022-09-03T00:30:26;1.77;;;1.67;;
45905;SDS011;31619;49.008;12.106;2022-09-03T00:35:34;1.80;;;1.48;;
45905;SDS011;31619;49.008;12.106;2022-09-03T00:38:11;2.05;;;1.70;;
45905;SDS011;31619;49.008;12.106;2022-09-03T00:54:39;2.50;;;1.85;;
45905;SDS011;31619;49.008;12.106;2022-09-03T01:02:41;1.65;;;1.55;;
45905;SDS011;31619;49.008;12.106;2022-09-03T01:10:45;2.67;;;1.80;;
45905;SDS011;31619;49.008;12.106;2022-09-03T01:18:42;1.50;;;1.40;;
45905;SDS011;31619;49.008;12.106;2022-09-03T01:22:21;1.92;;;1.83;;
45905;SDS011;31619;49.008;12.106;2022-09-03T01:24:30;1.90;;;1.80;;
45905;SDS011;31619;49.008;12.106;2022-09-03T01:30:05;2.90;;;2.05;;
45905;SDS011;31619;49.008;12.106;2022-09-03T01:32:34;2.58;;;1.95;;
45905;SDS011;31619;49.008;12.106;2022-09-03T01:37:50;2.10;;;2.00;;
45905;SDS011;31619;49.008;12.106;2022-09-03T01:40:40;1.70;;;1.60;;
45905;SDS011;31619;49.008;12.106;2022-09-03T01:46:38;1.83;;;1.73;;
45905;SDS011;31619;49.008;12.106;2022-09-03T01:52:17;2.10;;;2.00;;
45905;SDS011;31619;49.008;12.106;2022-09-03T01:57:52;1.63;;;1.63;;
45905;SDS011;31619;49.008;12.106;2022-09-03T02:00:19;2.55;;;2.35;;
45905;SDS011;31619;49.008;12.106;2022-09-03T02:02:45;2.17;;;2.08;;
45905;SDS011;31619;49.008;12.106;2022-09-03T02:05:14;2.33;;;2.13;;
45905;SDS011;31619;49.008;12.106;2022-09-03T02:13:19;1.83;;;1.73;;
45905;SDS011;31619;49.008;12.106;2022-09-03T02:15:51;1.95;;;1.85;;
45905;SDS011;31619;49.008;12.106;2022-09-03T02:18:30;1.95;;;1.85;;
45905;SDS011;31619;49.008;12.106;2022-09-03T02:21:01;1.90;;;1.80;;
45905;SDS011;31619;49.008;12.106;2022-09-03T02:23:27;1.90;;;1.80;;
45905;SDS011;31619;49.008;12.106;2022-09-03T02:25:57;1.42;;;1.42;;
45905;SDS011;31619;49.008;12.106;2022-09-03T02:28:25;3.45;;;2.08;;
45905;SDS011;31619;49.008;12.106;2022-09-03T02:30:53;2.17;;;1.90;;
45905;SDS011;31619;49.008;12.106;2022-09-03T02:33:18;3.00;;;2.05;;
45905;SDS011;31619;49.008;12.106;2022-09-03T02:35:44;1.80;;;1.70;;
45905;SDS011;31619;49.008;12.106;2022-09-03T02:38:15;1.98;;;1.70;;
45905;SDS011;31619;49.008;12.106;2022-09-03T02:40:43;1.90;;;1.80;;
45905;SDS011;31619;49.008;12.106;2022-09-03T02:43:21;2.22;;;1.80;;
45905;SDS011;31619;49.008;12.106;2022-09-03T02:45:49;1.63;;;1.58;;
45905;SDS011;31619;49.008;12.106;2022-09-03T02:48:22;1.95;;;1.85;;
45905;SDS011;31619;49.008;12.106;2022-09-03T02:50:48;1.65;;;1.65;;
45905;SDS011;31619;49.008;12.106;2022-09-03T02:53:14;2.08;;;1.88;;
45905;SDS011;31619;49.008;12.106;2022-09-03T02:55:40;3.80;;;1.65;;
45905;SDS011;31619;49.008;12.106;2022-09-03T02:58:06;2.08;;;1.70;;
45905;SDS011;31619;49.008;12.106;2022-09-03T03:00:33;2.35;;;1.80;;
45905;SDS011;31619;49.008;12.106;2022-09-03T03:03:00;2.88;;;2.08;;
45905;SDS011;31619;49.008;12.106;2022-09-03T03:05:29;4.10;;;2.65;;
45905;SDS011;31619;49.008;12.106;2022-09-03T03:08:07;1.92;;;1.83;;
45905;SDS011;31619;49.008;12.106;2022-09-03T03:10:33;1.92;;;1.83;;
45905;SDS011;31619;49.008;12.106;2022-09-03T03:13:00;2.78;;;1.85;;
45905;SDS011;31619;49.008;12.106;2022-09-03T03:15:25;2.78;;;1.83;;
45905;SDS011;31619;49.008;12.106;2022-09-03T03:17:54;4.47;;;1.80;;
45905;SDS011;31619;49.008;12.106;2022-09-03T03:20:21;2.00;;;1.90;;
45905;SDS011;31619;49.008;12.106;2022-09-03T03:22:47;2.00;;;1.80;;
45905;SDS011;31619;49.008;12.106;2022-09-03T03:25:13;1.95;;;1.85;;
45905;SDS011;31619;49.008;12.106;2022-09-03T03:27:38;1.80;;;1.70;;
45905;SDS011;31619;49.008;12.106;2022-09-03T03:30:06;1.90;;;1.80;;
45905;SDS011;31619;49.008;12.106;2022-09-03T03:32:34;1.77;;;1.77;;
45905;SDS011;31619;49.008;12.106;2022-09-03T03:35:00;1.77;;;1.77;;
45905;SDS011;31619;49.008;12.106;2022-09-03T03:37:26;2.85;;;1.90;;
45905;SDS011;31619;49.008;12.106;2022-09-03T03:39:52;2.10;;;2.00;;
45905;SDS011;31619;49.008;12.106;2022-09-03T03:42:18;2.65;;;2.15;;
45905;SDS011;31619;49.008;12.106;2022-09-03T03:47:28;1.70;;;1.60;;
45905;SDS011;31619;49.008;12.106;2022-09-03T03:49:57;2.10;;;2.00;;
45905;SDS011;31619;49.008;12.106;2022-09-03T03:52:23;1.80;;;1.70;;
45905;SDS011;31619;49.008;12.106;2022-09-03T03:54:50;1.90;;;1.80;;
45905;SDS011;31619;49.008;12.106;2022-09-03T03:57:17;2.78;;;2.00;;
45905;SDS011;31619;49.008;12.106;2022-09-03T03:59:43;2.00;;;1.90;;
45905;SDS011;31619;49.008;12.106;2022-09-03T04:02:09;2.35;;;2.15;;
45905;SDS011;31619;49.008;12.106;2022-09-03T04:04:36;1.73;;;1.67;;
45905;SDS011;31619;49.008;12.106;2022-09-03T04:07:02;2.15;;;2.05;;
45905;SDS011;31619;49.008;12.106;2022-09-03T04:09:28;2.67;;;2.08;;
45905;SDS011;31619;49.008;12.106;2022-09-03T04:11:53;2.03;;;1.80;;
45905;SDS011;31619;49.008;12.106;2022-09-03T04:14:22;1.65;;;1.65;;
45905;SDS011;31619;49.008;12.106;2022-09-03T04:16:48;1.92;;;1.83;;
45905;SDS011;31619;49.008;12.106;2022-09-03T04:19:15;2.22;;;2.13;;
45905;SDS011;31619;49.008;12.106;2022-09-03T04:21:41;2.45;;;2.30;;
45905;SDS011;31619;49.008;12.106;2022-09-03T04:24:07;2.28;;;2.08;;
45905;SDS011;31619;49.008;12.106;2022-09-03T04:26:33;2.50;;;2.00;;
45905;SDS011;31619;49.008;12.106;2022-09-03T04:29:00;2.25;;;2.15;;
45905;SDS011;31619;49.008;12.106;2022-09-03T04:31:29;3.15;;;2.22;;
45905;SDS011;31619;49.008;12.106;2022-09-03T04:33:55;2.03;;;1.92;;
45905;SDS011;31619;49.008;12.106;2022-09-03T04:36:22;2.20;;;2.03;;
45905;SDS011;31619;49.008;12.106;2022-09-03T04:38:50;2.30;;;2.10;;
45905;SDS011;31619;49.008;12.106;2022-09-03T04:41:21;2.28;;;2.08;;
45905;SDS011;31619;49.008;12.106;2022-09-03T04:43:52;2.22;;;2.03;;
45905;SDS011;31619;49.008;12.106;2022-09-03T04:46:19;3.08;;;2.20;;
45905;SDS011;31619;49.008;12.106;2022-09-03T04:48:49;2.38;;;2.17;;
45905;SDS011;31619;49.008;12.106;2022-09-03T04:51:20;2.45;;;2.17;;
45905;SDS011;31619;49.008;12.106;2022-09-03T04:53:47;2.13;;;2.00;;
45905;SDS011;31619;49.008;12.106;2022-09-03T04:56:22;2.15;;;2.05;;
45905;SDS011;31619;49.008;12.106;2022-09-03T04:58:53;2.72;;;2.20;;
45905;SDS011;31619;49.008;12.106;2022-09-03T05:01:24;2.47;;;1.95;;
45905;SDS011;31619;49.008;12.106;2022-09-03T05:03:51;2.50;;;2.30;;
45905;SDS011;31619;49.008;12.106;2022-09-03T05:06:18;2.28;;;2.10;;
45905;SDS011;31619;49.008;12.106;2022-09-03T05:08:47;2.88;;;2.30;;
45905;SDS011;31619;49.008;12.106;2022-09-03T05:11:14;2.97;;;2.30;;
45905;SDS011;31619;49.008;12.106;2022-09-03T05:13:40;2.10;;;2.00;;
45905;SDS011;31619;49.008;12.106;2022-09-03T05:16:07;1.90;;;1.85;;
45905;SDS011;31619;49.008;12.106;2022-09-03T05:18:34;2.10;;;2.00;;
45905;SDS011;31619;49.008;12.106;2022-09-03T05:21:04;2.53;;;2.35;;
45905;SDS011;31619;49.008;12.106;2022-09-03T05:23:31;2.53;;;2.35;;
45905;SDS011;31619;49.008;12.106;2022-09-03T05:26:01;4.97;;;1.85;;
45905;SDS011;31619;49.008;12.106;2022-09-03T05:28:29;2.50;;;2.30;;
45905;SDS011;31619;49.008;12.106;2022-09-03T05:30:59;3.28;;;2.08;;
45905;SDS011;31619;49.008;12.106;2022-09-03T05:33:25;2.20;;;1.85;;
45905;SDS011;31619;49.008;12.106;2022-09-03T05:35:52;1.83;;;1.73;;
45905;SDS011;31619;49.008;12.106;2022-09-03T05:38:25;3.00;;;1.80;;
45905;SDS011;31619;49.008;12.106;2022-09-03T05:40:51;1.55;;;1.42;;
45905;SDS011;31619;49.008;12.106;2022-09-03T05:43:16;2.15;;;1.67;;
45905;SDS011;31619;49.008;12.106;2022-09-03T05:45:42;1.65;;;1.58;;
45905;SDS011;31619;49.008;12.106;2022-09-03T05:48:08;1.77;;;1.65;;
45905;SDS011;31619;49.008;12.106;2022-09-03T05:50:33;2.28;;;1.60;;
45905;SDS011;31619;49.008;12.106;2022-09-03T05:52:59;2.35;;;1.85;;
45905;SDS011;31619;49.008;12.106;2022-09-03T05:55:24;2.00;;;1.73;;
45905;SDS011;31619;49.008;12.106;2022-09-03T05:57:52;2.15;;;1.98;;
45905;SDS011;31619;49.008;12.106;2022-09-03T06:00:18;1.98;;;1.70;;
45905;SDS011;31619;49.008;12.106;2022-09-03T06:02:50;2.10;;;1.90;;
45905;SDS011;31619;49.008;12.106;2022-09-03T06:05:16;1.63;;;1.52;;
45905;SDS011;31619;49.008;12.106;2022-09-03T06:07:43;2.38;;;1.83;;
45905;SDS011;31619;49.008;12.106;2022-09-03T06:10:12;3.63;;;1.90;;
45905;SDS011;31619;49.008;12.106;2022-09-03T06:12:40;3.58;;;1.90;;
45905;SDS011;31619;49.008;12.106;2022-09-03T06:15:06;2.55;;;1.75;;
45905;SDS011;31619;49.008;12.106;2022-09-03T06:17:33;1.65;;;1.55;;
45905;SDS011;31619;49.008;12.106;2022-09-03T06:19:58;2.10;;;1.67;;
45905;SDS011;31619;49.008;12.106;2022-09-03T06:22:24;2.03;;;1.88;;
45905;SDS011;31619;49.008;12.106;2022-09-03T06:24:52;2.00;;;1.90;;
45905;SDS011;31619;49.008;12.106;2022-09-03T06:27:18;1.77;;;1.67;;
45905;SDS011;31619;49.008;12.106;2022-09-03T06:29:45;1.85;;;1.58;;
45905;SDS011;31619;49.008;12.106;2022-09-03T06:32:10;1.67;;;1.58;;
45905;SDS011;31619;49.008;12.106;2022-09-03T06:34:36;1.90;;;1.80;;
45905;SDS011;31619;49.008;12.106;2022-09-03T06:37:02;1.63;;;1.60;;
45905;SDS011;31619;49.008;12.106;2022-09-03T06:39:27;1.88;;;1.77;;
45905;SDS011;31619;49.008;12.106;2022-09-03T06:41:53;1.88;;;1.77;;
45905;SDS011;31619;49.008;12.106;2022-09-03T06:44:19;1.90;;;1.77;;
45905;SDS011;31619;49.008;12.106;2022-09-03T06:46:44;1.77;;;1.67;;
45905;SDS011;31619;49.008;12.106;2022-09-03T06:49:12;3.53;;;1.67;;
45905;SDS011;31619;49.008;12.106;2022-09-03T06:51:38;2.28;;;1.55;;
45905;SDS011;31619;49.008;12.106;2022-09-03T06:54:08;1.83;;;1.73;;
45905;SDS011;31619;49.008;12.106;2022-09-03T06:56:36;2.22;;;2.10;;
45905;SDS011;31619;49.008;12.106;2022-09-03T06:59:04;1.58;;;1.48;;
45905;SDS011;31619;49.008;12.106;2022-09-03T07:01:32;3.45;;;1.83;;
45905;SDS011;31619;49.008;12.106;2022-09-03T07:04:02;4.03;;;1.67;;
45905;SDS011;31619;49.008;12.106;2022-09-03T07:06:33;1.50;;;1.50;;
45905;SDS011;31619;49.008;12.106;2022-09-03T07:09:04;3.05;;;1.58;;
45905;SDS011;31619;49.008;12.106;2022-09-03T07:11:31;2.42;;;1.42;;
45905;SDS011;31619;49.008;12.106;2022-09-03T07:13:58;1.60;;;1.50;;
45905;SDS011;31619;49.008;12.106;2022-09-03T07:16:28;3.28;;;1.50;;
45905;SDS011;31619;49.008;12.106;2022-09-03T07:18:55;2.10;;;1.50;;
45905;SDS011;31619;49.008;12.106;2022-09-03T07:21:25;1.42;;;1.33;;
45905;SDS011;31619;49.008;12.106;2022-09-03T07:23:52;1.90;;;1.42;;
45905;SDS011;31619;49.008;12.106;2022-09-03T07:26:29;1.58;;;1.48;;
45905;SDS011;31619;49.008;12.106;2022-09-03T07:28:56;2.55;;;1.73;;
45905;SDS011;31619;49.008;12.106;2022-09-03T07:31:25;4.97;;;1.73;;
45905;SDS011;31619;49.008;12.106;2022-09-03T07:33:53;2.00;;;1.60;;
45905;SDS011;31619;49.008;12.106;2022-09-03T07:36:30;1.80;;;1.70;;
45905;SDS011;31619;49.008;12.106;2022-09-03T07:39:02;1.58;;;1.48;;
45905;SDS011;31619;49.008;12.106;2022-09-03T07:41:28;1.70;;;1.60;;
45905;SDS011;31619;49.008;12.106;2022-09-03T07:43:57;1.88;;;1.67;;
45905;SDS011;31619;49.008;12.106;2022-09-03T07:46:26;2.50;;;1.70;;
45905;SDS011;31619;49.008;12.106;2022-09-03T07:48:53;2.10;;;1.70;;
45905;SDS011;31619;49.008;12.106;2022-09-03T07:51:20;2.03;;;1.70;;
45905;SDS011;31619;49.008;12.106;2022-09-03T07:53:51;1.80;;;1.70;;
45905;SDS011;31619;49.008;12.106;2022-09-03T07:56:18;1.52;;;1.35;;
45905;SDS011;31619;49.008;12.106;2022-09-03T07:58:44;2.20;;;1.50;;
45905;SDS011;31619;49.008;12.106;2022-09-03T08:01:12;1.40;;;1.40;;
45905;SDS011;31619;49.008;12.106;2022-09-03T08:03:44;1.17;;;1.17;;
45905;SDS011;31619;49.008;12.106;2022-09-03T08:06:10;2.22;;;1.60;;
45905;SDS011;31619;49.008;12.106;2022-09-03T08:08:37;1.60;;;1.50;;
45905;SDS011;31619;49.008;12.106;2022-09-03T08:13:34;1.25;;;1.15;;
45905;SDS011;31619;49.008;12.106;2022-09-03T08:16:04;1.42;;;1.33;;
45905;SDS011;31619;49.008;12.106;2022-09-03T08:18:32;1.55;;;1.45;;
45905;SDS011;31619;49.008;12.106;2022-09-03T08:21:01;1.50;;;1.40;;
45905;SDS011;31619;49.008;12.106;2022-09-03T08:23:31;1.50;;;1.40;;
45905;SDS011;31619;49.008;12.106;2022-09-03T08:25:58;1.58;;;1.48;;
45905;SDS011;31619;49.008;12.106;2022-09-03T08:28:25;2.20;;;1.20;;
45905;SDS011;31619;49.008;12.106;2022-09-03T08:30:51;1.65;;;1.50;;
45905;SDS011;31619;49.008;12.106;2022-09-03T08:33:16;1.50;;;1.40;;
45905;SDS011;31619;49.008;12.106;2022-09-03T08:36:01;1.40;;;1.30;;
45905;SDS011;31619;49.008;12.106;2022-09-03T08:38:31;1.48;;;1.30;;
45905;SDS011;31619;49.008;12.106;2022-09-03T08:41:05;4.30;;;1.60;;
45905;SDS011;31619;49.008;12.106;2022-09-03T08:43:42;3.13;;;1.35;;
45905;SDS011;31619;49.008;12.106;2022-09-03T08:46:25;1.40;;;1.30;;
45905;SDS011;31619;49.008;12.106;2022-09-03T08:49:02;1.40;;;1.30;;
45905;SDS011;31619;49.008;12.106;2022-09-03T08:51:29;1.77;;;1.42;;
45905;SDS011;31619;49.008;12.106;2022-09-03T08:53:58;2.08;;;1.42;;
45905;SDS011;31619;49.008;12.106;2022-09-03T08:56:27;1.27;;;1.27;;
45905;SDS011;31619;49.008;12.106;2022-09-03T08:58:55;2.00;;;1.60;;
45905;SDS011;31619;49.008;12.106;2022-09-03T09:12:15;2.05;;;1.70;;
45905;SDS011;31619;49.008;12.106;2022-09-03T09:17:39;1.55;;;1.45;;
45905;SDS011;31619;49.008;12.106;2022-09-03T09:23:13;1.52;;;1.42;;
45905;SDS011;31619;49.008;12.106;2022-09-03T09:26:00;1.45;;;1.30;;
45905;SDS011;31619;49.008;12.106;2022-09-03T09:28:34;1.40;;;1.30;;
45905;SDS011;31619;49.008;12.106;2022-09-03T09:31:02;2.08;;;1.63;;
45905;SDS011;31619;49.008;12.106;2022-09-03T09:33:30;3.42;;;1.92;;
45905;SDS011;31619;49.008;12.106;2022-09-03T09:36:00;2.92;;;2.58;;
45905;SDS011;31619;49.008;12.106;2022-09-03T09:38:30;1.63;;;1.50;;
45905;SDS011;31619;49.008;12.106;2022-09-03T09:41:07;1.85;;;1.42;;
45905;SDS011;31619;49.008;12.106;2022-09-03T09:43:37;2.05;;;1.90;;
45905;SDS011;31619;49.008;12.106;2022-09-03T09:46:14;1.67;;;1.58;;
45905;SDS011;31619;49.008;12.106;2022-09-03T09:48:50;1.98;;;1.45;;
45905;SDS011;31619;49.008;12.106;2022-09-03T09:51:27;1.65;;;1.55;;
45905;SDS011;31619;49.008;12.106;2022-09-03T09:54:02;1.70;;;1.60;;
45905;SDS011;31619;49.008;12.106;2022-09-03T09:56:37;1.88;;;1.70;;
45905;SDS011;31619;49.008;12.106;2022-09-03T10:01:33;2.58;;;1.60;;
45905;SDS011;31619;49.008;12.106;2022-09-03T10:04:11;1.98;;;1.48;;
45905;SDS011;31619;49.008;12.106;2022-09-03T10:06:37;4.63;;;1.83;;
45905;SDS011;31619;49.008;12.106;2022-09-03T10:09:20;2.60;;;1.65;;
45905;SDS011;31619;49.008;12.106;2022-09-03T10:14:41;1.83;;;1.73;;
45905;SDS011;31619;49.008;12.106;2022-09-03T10:20:33;1.70;;;1.60;;
45905;SDS011;31619;49.008;12.106;2022-09-03T10:23:24;1.77;;;1.52;;
45905;SDS011;31619;49.008;12.106;2022-09-03T10:28:26;3.97;;;1.35;;
45905;SDS011;31619;49.008;12.106;2022-09-03T10:33:26;1.60;;;1.48;;
45905;SDS011;31619;49.008;12.106;2022-09-03T10:36:45;2.78;;;1.33;;
45905;SDS011;31619;49.008;12.106;2022-09-03T10:38:52;1.30;;;1.30;;
45905;SDS011;31619;49.008;12.106;2022-09-03T10:41:46;1.40;;;1.30;;
45905;SDS011;31619;49.008;12.106;2022-09-03T10:47:18;1.52;;;1.42;;
45905;SDS011;31619;49.008;12.106;2022-09-03T10:52:50;1.30;;;1.20;;
45905;SDS011;31619;49.008;12.106;2022-09-03T10:55:19;0.98;;;0.98;;
45905;SDS011;31619;49.008;12.106;2022-09-03T10:58:14;1.50;;;1.40;;
45905;SDS011;31619;49.008;12.106;2022-09-03T11:00:51;1.77;;;1.13;;
45905;SDS011;31619;49.008;12.106;2022-09-03T11:06:10;3.63;;;1.40;;
45905;SDS011;31619;49.008;12.106;2022-09-03T11:08:46;1.42;;;1.30;;
45905;SDS011;31619;49.008;12.106;2022-09-03T11:11:35;1.65;;;1.17;;
45905;SDS011;31619;49.008;12.106;2022-09-03T11:14:07;1.27;;;1.17;;
45905;SDS011;31619;49.008;12.106;2022-09-03T11:16:36;1.55;;;1.30;;
45905;SDS011;31619;49.008;12.106;2022-09-03T11:19:10;1.40;;;1.30;;
45905;SDS011;31619;49.008;12.106;2022-09-03T11:21:40;0.95;;;0.95;;
45905;SDS011;31619;49.008;12.106;2022-09-03T11:26:44;1.60;;;1.50;;
45905;SDS011;31619;49.008;12.106;2022-09-03T11:29:18;1.52;;;1.27;;
45905;SDS011;31619;49.008;12.106;2022-09-03T11:37:21;1.60;;;1.45;;
45905;SDS011;31619;49.008;12.106;2022-09-03T11:39:53;1.45;;;1.33;;
45905;SDS011;31619;49.008;12.106;2022-09-03T11:42:36;1.48;;;1.38;;
45905;SDS011;31619;49.008;12.106;2022-09-03T11:47:54;1.20;;;1.10;;
45905;SDS011;31619;49.008;12.106;2022-09-03T11:52:54;1.60;;;1.50;;
45905;SDS011;31619;49.008;12.106;2022-09-03T11:55:47;2.17;;;2.03;;
45905;SDS011;31619;49.008;12.106;2022-09-03T11:58:56;1.98;;;1.40;;
45905;SDS011;31619;49.008;12.106;2022-09-03T12:01:10;1.73;;;1.55;;
45905;SDS011;31619;49.008;12.106;2022-09-03T12:14:48;2.55;;;1.40;;
45905;SDS011;31619;49.008;12.106;2022-09-03T12:17:29;1.40;;;1.30;;
45905;SDS011;31619;49.008;12.106;2022-09-03T12:20:14;1.33;;;1.25;;
45905;SDS011;31619;49.008;12.106;2022-09-03T12:22:41;1.20;;;1.20;;
45905;SDS011;31619;49.008;12.106;2022-09-03T12:25:16;1.40;;;1.30;;
45905;SDS011;31619;49.008;12.106;2022-09-03T12:27:42;2.80;;;2.17;;
45905;SDS011;31619;49.008;12.106;2022-09-03T12:30:16;3.28;;;1.48;;
45905;SDS011;31619;49.008;12.106;2022-09-03T12:33:04;1.10;;;1.10;;
45905;SDS011;31619;49.008;12.106;2022-09-03T12:35:31;2.03;;;1.10;;
45905;SDS011;31619;49.008;12.106;2022-09-03T12:37:57;1.33;;;1.20;;
45905;SDS011;31619;49.008;12.106;2022-09-03T12:40:23;1.95;;;1.35;;
45905;SDS011;31619;49.008;12.106;2022-09-03T12:42:51;1.27;;;1.27;;
45905;SDS011;31619;49.008;12.106;2022-09-03T12:45:22;4.78;;;1.60;;
45905;SDS011;31619;49.008;12.106;2022-09-03T12:47:50;1.58;;;1.42;;
45905;SDS011;31619;49.008;12.106;2022-09-03T12:50:20;3.15;;;1.25;;
45905;SDS011;31619;49.008;12.106;2022-09-03T12:52:50;1.60;;;1.50;;
45905;SDS011;31619;49.008;12.106;2022-09-03T12:55:35;1.80;;;1.45;;
45905;SDS011;31619;49.008;12.106;2022-09-03T12:58:22;1.88;;;1.60;;
45905;SDS011;31619;49.008;12.106;2022-09-03T13:06:24;1.77;;;1.67;;
45905;SDS011;31619;49.008;12.106;2022-09-03T13:08:54;2.20;;;1.60;;
45905;SDS011;31619;49.008;12.106;2022-09-03T13:11:24;2.47;;;1.60;;
45905;SDS011;31619;49.008;12.106;2022-09-03T13:13:55;1.65;;;1.55;;
45905;SDS011;31619;49.008;12.106;2022-09-03T13:30:31;2.05;;;1.95;;
45905;SDS011;31619;49.008;12.106;2022-09-03T13:33:20;2.08;;;1.88;;
45905;SDS011;31619;49.008;12.106;2022-09-03T13:36:09;2.45;;;1.67;;
45905;SDS011;31619;49.008;12.106;2022-09-03T13:46:42;1.70;;;1.70;;
45905;SDS011;31619;49.008;12.106;2022-09-03T13:52:36;2.05;;;1.90;;
45905;SDS011;31619;49.008;12.106;2022-09-03T14:00:42;2.35;;;2.15;;
45905;SDS011;31619;49.008;12.106;2022-09-03T14:06:08;2.30;;;2.10;;
45905;SDS011;31619;49.008;12.106;2022-09-03T14:14:19;1.90;;;1.80;;
45905;SDS011;31619;49.008;12.106;2022-09-03T14:26:30;1.67;;;1.60;;
45905;SDS011;31619;49.008;12.106;2022-09-03T14:37:01;3.40;;;2.05;;
45905;SDS011;31619;49.008;12.106;2022-09-03T14:47:35;2.05;;;1.80;;
45905;SDS011;31619;49.008;12.106;2022-09-03T14:50:33;2.97;;;1.83;;
45905;SDS011;31619;49.008;12.106;2022-09-03T15:01:48;2.90;;;2.00;;
45905;SDS011;31619;49.008;12.106;2022-09-03T15:15:22;4.75;;;1.80;;
45905;SDS011;31619;49.008;12.106;2022-09-03T15:26:09;2.35;;;2.13;;
45905;SDS011;31619;49.008;12.106;2022-09-03T15:36:53;1.77;;;1.67;;
45905;SDS011;31619;49.008;12.106;2022-09-03T15:39:23;2.63;;;1.63;;
45905;SDS011;31619;49.008;12.106;2022-09-03T15:41:55;1.70;;;1.60;;
45905;SDS011;31619;49.008;12.106;2022-09-03T15:44:27;2.78;;;2.08;;
45905;SDS011;31619;49.008;12.106;2022-09-03T15:53:33;2.85;;;2.65;;
45905;SDS011;31619;49.008;12.106;2022-09-03T15:59:00;2.42;;;2.22;;
45905;SDS011;31619;49.008;12.106;2022-09-03T16:01:57;5.07;;;2.30;;
45905;SDS011;31619;49.008;12.106;2022-09-03T16:04:47;1.73;;;1.63;;
45905;SDS011;31619;49.008;12.106;2022-09-03T16:10:03;2.20;;;2.00;;
45905;SDS011;31619;49.008;12.106;2022-09-03T16:12:48;1.70;;;1.70;;
45905;SDS011;31619;49.008;12.106;2022-09-03T16:15:48;2.22;;;2.13;;
45905;SDS011;31619;49.008;12.106;2022-09-03T16:18:24;2.47;;;2.28;;
45905;SDS011;31619;49.008;12.106;2022-09-03T16:21:21;3.75;;;2.60;;
45905;SDS011;31619;49.008;12.106;2022-09-03T16:24:32;1.80;;;1.70;;
45905;SDS011;31619;49.008;12.106;2022-09-03T16:29:26;3.25;;;2.05;;
45905;SDS011;31619;49.008;12.106;2022-09-03T16:40:29;2.10;;;1.90;;
45905;SDS011;31619;49.008;12.106;2022-09-03T16:45:49;2.20;;;2.10;;
45905;SDS011;31619;49.008;12.106;2022-09-03T16:48:40;2.13;;;1.92;;
45905;SDS011;31619;49.008;12.106;2022-09-03T16:51:39;1.98;;;1.88;;
45905;SDS011;31619;49.008;12.106;2022-09-03T17:00:04;2.10;;;1.90;;
45905;SDS011;31619;49.008;12.106;2022-09-03T17:07:54;3.63;;;2.28;;
45905;SDS011;31619;49.008;12.106;2022-09-03T17:24:28;3.22;;;2.55;;
45905;SDS011;31619;49.008;12.106;2022-09-03T17:35:17;2.63;;;2.53;;
45905;SDS011;31619;49.008;12.106;2022-09-03T17:43:40;2.78;;;2.45;;
45905;SDS011;31619;49.008;12.106;2022-09-03T17:47:15;2.88;;;2.70;;
45905;SDS011;31619;49.008;12.106;2022-09-03T17:49:25;3.67;;;3.45;;
45905;SDS011;31619;49.008;12.106;2022-09-03T17:51:58;3.28;;;3.08;;
45905;SDS011;31619;49.008;12.106;2022-09-03T17:54:48;4.13;;;3.00;;
45905;SDS011;31619;49.008;12.106;2022-09-03T18:13:04;3.15;;;2.95;;
45905;SDS011;31619;49.008;12.106;2022-09-03T18:18:32;2.10;;;2.00;;
45905;SDS011;31619;49.008;12.106;2022-09-03T18:21:02;2.88;;;2.13;;
45905;SDS011;31619;49.008;12.106;2022-09-03T18:23:56;2.20;;;2.10;;
45905;SDS011;31619;49.008;12.106;2022-09-03T18:27:06;2.20;;;2.10;;
45905;SDS011;31619;49.008;12.106;2022-09-03T18:30:03;2.30;;;2.10;;
45905;SDS011;31619;49.008;12.106;2022-09-03T18:32:53;1.77;;;1.73;;
45905;SDS011;31619;49.008;12.106;2022-09-03T18:35:37;3.28;;;2.08;;
45905;SDS011;31619;49.008;12.106;2022-09-03T18:38:40;1.73;;;1.73;;
45905;SDS011;31619;49.008;12.106;2022-09-03T18:41:48;2.10;;;1.98;;
45905;SDS011;31619;49.008;12.106;2022-09-03T18:51:35;1.70;;;1.60;;
45905;SDS011;31619;49.008;12.106;2022-09-03T19:00:40;1.50;;;1.50;;
45905;SDS011;31619;49.008;12.106;2022-09-03T19:03:51;1.42;;;1.33;;
45905;SDS011;31619;49.008;12.106;2022-09-03T19:06:43;1.50;;;1.50;;
45905;SDS011;31619;49.008;12.106;2022-09-03T19:22:10;1.30;;;1.30;;
45905;SDS011;31619;49.008;12.106;2022-09-03T19:25:14;1.10;;;1.10;;
45905;SDS011;31619;49.008;12.106;2022-09-03T19:28:20;1.55;;;1.52;;
45905;SDS011;31619;49.008;12.106;2022-09-03T19:34:21;1.40;;;1.40;;
45905;SDS011;31619;49.008;12.106;2022-09-03T19:37:42;1.35;;;1.35;;
45905;SDS011;31619;49.008;12.106;2022-09-03T19:47:05;1.30;;;1.30;;
45905;SDS011;31619;49.008;12.106;2022-09-03T19:52:54;1.30;;;1.30;;
45905;SDS011;31619;49.008;12.106;2022-09-03T19:55:51;1.40;;;1.40;;
45905;SDS011;31619;49.008;12.106;2022-09-03T19:58:37;1.70;;;1.60;;
45905;SDS011;31619;49.008;12.106;2022-09-03T20:01:28;1.48;;;1.48;;
45905;SDS011;31619;49.008;12.106;2022-09-03T20:04:17;1.70;;;1.60;;
45905;SDS011;31619;49.008;12.106;2022-09-03T20:07:04;1.80;;;1.75;;
45905;SDS011;31619;49.008;12.106;2022-09-03T20:09:52;2.05;;;2.00;;
45905;SDS011;31619;49.008;12.106;2022-09-03T20:12:42;1.70;;;1.70;;
45905;SDS011;31619;49.008;12.106;2022-09-03T20:15:13;1.80;;;1.70;;
45905;SDS011;31619;49.008;12.106;2022-09-03T20:20:57;2.50;;;2.10;;
45905;SDS011;31619;49.008;12.106;2022-09-03T20:26:35;2.10;;;2.00;;
45905;SDS011;31619;49.008;12.106;2022-09-03T20:32:19;2.00;;;1.90;;
45905;SDS011;31619;49.008;12.106;2022-09-03T20:37:38;2.08;;;1.98;;
45905;SDS011;31619;49.008;12.106;2022-09-03T20:48:18;2.28;;;2.17;;
45905;SDS011;31619;49.008;12.106;2022-09-03T20:51:13;2.33;;;2.17;;
45905;SDS011;31619;49.008;12.106;2022-09-03T20:53:55;2.65;;;2.55;;
45905;SDS011;31619;49.008;12.106;2022-09-03T20:59:27;2.58;;;2.38;;
45905;SDS011;31619;49.008;12.106;2022-09-03T21:02:11;2.38;;;2.28;;
45905;SDS011;31619;49.008;12.106;2022-09-03T21:05:12;2.22;;;2.13;;
45905;SDS011;31619;49.008;12.106;2022-09-03T21:15:57;3.65;;;3.33;;
45905;SDS011;31619;49.008;12.106;2022-09-03T21:18:40;3.10;;;2.90;;
45905;SDS011;31619;49.008;12.106;2022-09-03T21:21:37;3.65;;;3.33;;
45905;SDS011;31619;49.008;12.106;2022-09-03T21:24:04;2.60;;;2.40;;
45905;SDS011;31619;49.008;12.106;2022-09-03T21:26:40;3.22;;;2.92;;
45905;SDS011;31619;49.008;12.106;2022-09-03T21:29:29;3.67;;;3.38;;
45905;SDS011;31619;49.008;12.106;2022-09-03T21:32:03;5.35;;;4.97;;
45905;SDS011;31619;49.008;12.106;2022-09-03T21:34:40;4.97;;;4.68;;
45905;SDS011;31619;49.008;12.106;2022-09-03T21:37:07;6.63;;;5.20;;